This is the latest recevied weather packets stored in our database for station/object OK1FET-16. If no packets are shown the sender has not sent any weather packets the latest 10 day(s).
| Time | Temp. | Humidity | Pressure | Rain* | Wind** | Luminosity | Snow |
|---|---|---|---|---|---|---|---|
| 1787816182 | 30° C | 55% | 1072.7 hPa | - | - | - | - |
| 1787815910 | 29.44° C | 56% | 1072.7 hPa | - | - | - | - |
| 1787815639 | 29.44° C | 56% | 1072.7 hPa | - | - | - | - |
| 1787815367 | 28.33° C | 57% | 1072.8 hPa | - | - | - | - |
| 1787815096 | 27.78° C | 59% | 1072.8 hPa | - | - | - | - |
| 1787814824 | 27.78° C | 59% | 1072.8 hPa | - | - | - | - |
| 1787814553 | 27.78° C | 59% | 1072.8 hPa | - | - | - | - |
| 1787814281 | 28.33° C | 59% | 1072.7 hPa | - | - | - | - |
| 1787814010 | 28.33° C | 59% | 1072.8 hPa | - | - | - | - |
| 1787813739 | 27.78° C | 60% | 1072.8 hPa | - | - | - | - |
| 1787813467 | 27.22° C | 61% | 1072.9 hPa | - | - | - | - |
| 1787813196 | 26.67° C | 61% | 1072.8 hPa | - | - | - | - |
| 1787812925 | 26.11° C | 63% | 1072.8 hPa | - | - | - | - |
| 1787812654 | 25.56° C | 65% | 1072.8 hPa | - | - | - | - |
| 1787812383 | 25° C | 66% | 1072.7 hPa | - | - | - | - |
| 1787812112 | 23.89° C | 68% | 1072.8 hPa | - | - | - | - |
| 1787811841 | 23.33° C | 70% | 1072.8 hPa | - | - | - | - |
| 1787811570 | 22.22° C | 73% | 1072.9 hPa | - | - | - | - |
| 1787811300 | 21.67° C | 76% | 1072.8 hPa | - | - | - | - |
| 1787811029 | 20.56° C | 80% | 1073 hPa | - | - | - | - |
| 1787810759 | 19.44° C | 84% | 1073.1 hPa | - | - | - | - |
| 1787810488 | 18.33° C | 88% | 1073.1 hPa | - | - | - | - |
| 1787810218 | 17.22° C | 95% | 1073.1 hPa | - | - | - | - |
| 1787809948 | 16.11° C | 100% | 1073.1 hPa | - | - | - | - |
| 1787809678 | 15° C | 100% | 1073.1 hPa | - | - | - | - |
* Rain since midnight (hover to see other rain measurements)
** Current wind speed in m/s (hover to see current wind gust speed)